sensor_id;sensor_type;location;lat;lon;timestamp;P1;durP1;ratioP1;P2;durP2;ratioP2
27225;SDS011;14732;51.074;3.788;2023-08-20T00:01:52;10.43;;;4.50;;
27225;SDS011;14732;51.074;3.788;2023-08-20T00:04:23;14.02;;;4.38;;
27225;SDS011;14732;51.074;3.788;2023-08-20T00:06:51;12.77;;;4.53;;
27225;SDS011;14732;51.074;3.788;2023-08-20T00:09:17;9.95;;;4.75;;
27225;SDS011;14732;51.074;3.788;2023-08-20T00:11:42;10.45;;;4.80;;
27225;SDS011;14732;51.074;3.788;2023-08-20T00:14:14;16.40;;;4.78;;
27225;SDS011;14732;51.074;3.788;2023-08-20T00:16:41;15.18;;;4.85;;
27225;SDS011;14732;51.074;3.788;2023-08-20T00:19:08;10.77;;;4.38;;
27225;SDS011;14732;51.074;3.788;2023-08-20T00:21:34;12.15;;;3.95;;
27225;SDS011;14732;51.074;3.788;2023-08-20T00:24:00;10.80;;;4.35;;
27225;SDS011;14732;51.074;3.788;2023-08-20T00:26:26;13.82;;;4.07;;
27225;SDS011;14732;51.074;3.788;2023-08-20T00:28:52;11.30;;;4.18;;
27225;SDS011;14732;51.074;3.788;2023-08-20T00:31:18;11.85;;;4.55;;
27225;SDS011;14732;51.074;3.788;2023-08-20T00:33:44;12.68;;;4.55;;
27225;SDS011;14732;51.074;3.788;2023-08-20T00:36:10;13.18;;;4.57;;
27225;SDS011;14732;51.074;3.788;2023-08-20T00:38:35;14.68;;;4.25;;
27225;SDS011;14732;51.074;3.788;2023-08-20T00:41:01;10.63;;;4.45;;
27225;SDS011;14732;51.074;3.788;2023-08-20T00:43:26;14.85;;;4.28;;
27225;SDS011;14732;51.074;3.788;2023-08-20T00:45:52;7.68;;;3.83;;
27225;SDS011;14732;51.074;3.788;2023-08-20T00:48:18;13.18;;;4.28;;
27225;SDS011;14732;51.074;3.788;2023-08-20T00:50:44;10.80;;;4.00;;
27225;SDS011;14732;51.074;3.788;2023-08-20T00:53:10;13.05;;;4.03;;
27225;SDS011;14732;51.074;3.788;2023-08-20T00:55:38;11.10;;;4.10;;
27225;SDS011;14732;51.074;3.788;2023-08-20T00:58:04;9.43;;;3.75;;
27225;SDS011;14732;51.074;3.788;2023-08-20T01:00:30;8.23;;;3.97;;
27225;SDS011;14732;51.074;3.788;2023-08-20T01:02:56;8.73;;;3.92;;
27225;SDS011;14732;51.074;3.788;2023-08-20T01:05:22;10.85;;;3.80;;
27225;SDS011;14732;51.074;3.788;2023-08-20T01:07:54;12.77;;;4.20;;
27225;SDS011;14732;51.074;3.788;2023-08-20T01:10:56;11.18;;;4.10;;
27225;SDS011;14732;51.074;3.788;2023-08-20T01:13:26;10.40;;;3.72;;
27225;SDS011;14732;51.074;3.788;2023-08-20T01:15:52;10.00;;;3.50;;
27225;SDS011;14732;51.074;3.788;2023-08-20T01:18:17;8.52;;;3.45;;
27225;SDS011;14732;51.074;3.788;2023-08-20T01:20:45;8.23;;;3.78;;
27225;SDS011;14732;51.074;3.788;2023-08-20T01:29:02;9.98;;;3.75;;
27225;SDS011;14732;51.074;3.788;2023-08-20T01:31:29;13.45;;;3.95;;
27225;SDS011;14732;51.074;3.788;2023-08-20T01:33:56;10.73;;;3.70;;
27225;SDS011;14732;51.074;3.788;2023-08-20T01:36:22;11.15;;;3.78;;
27225;SDS011;14732;51.074;3.788;2023-08-20T01:38:47;8.00;;;3.58;;
27225;SDS011;14732;51.074;3.788;2023-08-20T01:41:13;9.50;;;3.28;;
27225;SDS011;14732;51.074;3.788;2023-08-20T01:43:39;11.70;;;3.80;;
27225;SDS011;14732;51.074;3.788;2023-08-20T01:46:05;10.05;;;4.40;;
27225;SDS011;14732;51.074;3.788;2023-08-20T01:48:32;14.70;;;5.00;;
27225;SDS011;14732;51.074;3.788;2023-08-20T01:50:57;21.98;;;5.43;;
27225;SDS011;14732;51.074;3.788;2023-08-20T01:53:23;16.33;;;4.95;;
27225;SDS011;14732;51.074;3.788;2023-08-20T01:55:48;14.15;;;4.40;;
27225;SDS011;14732;51.074;3.788;2023-08-20T01:58:14;11.73;;;4.38;;
27225;SDS011;14732;51.074;3.788;2023-08-20T02:00:40;10.82;;;4.20;;
27225;SDS011;14732;51.074;3.788;2023-08-20T02:03:06;13.25;;;4.55;;
27225;SDS011;14732;51.074;3.788;2023-08-20T02:05:31;13.20;;;4.30;;
27225;SDS011;14732;51.074;3.788;2023-08-20T02:07:57;12.35;;;4.95;;
27225;SDS011;14732;51.074;3.788;2023-08-20T02:10:22;10.55;;;4.47;;
27225;SDS011;14732;51.074;3.788;2023-08-20T02:12:48;9.25;;;4.10;;
27225;SDS011;14732;51.074;3.788;2023-08-20T02:15:14;10.05;;;4.90;;
27225;SDS011;14732;51.074;3.788;2023-08-20T02:17:39;12.82;;;5.50;;
27225;SDS011;14732;51.074;3.788;2023-08-20T02:20:05;14.40;;;5.28;;
27225;SDS011;14732;51.074;3.788;2023-08-20T02:22:34;12.70;;;4.93;;
27225;SDS011;14732;51.074;3.788;2023-08-20T02:25:00;16.55;;;5.22;;
27225;SDS011;14732;51.074;3.788;2023-08-20T02:27:26;15.25;;;5.18;;
27225;SDS011;14732;51.074;3.788;2023-08-20T02:29:52;13.90;;;5.78;;
27225;SDS011;14732;51.074;3.788;2023-08-20T02:32:17;12.27;;;4.82;;
27225;SDS011;14732;51.074;3.788;2023-08-20T02:34:43;11.20;;;4.35;;
27225;SDS011;14732;51.074;3.788;2023-08-20T02:37:09;15.52;;;4.95;;
27225;SDS011;14732;51.074;3.788;2023-08-20T02:39:35;12.43;;;4.53;;
27225;SDS011;14732;51.074;3.788;2023-08-20T02:42:00;16.10;;;4.72;;
27225;SDS011;14732;51.074;3.788;2023-08-20T02:44:26;13.68;;;4.40;;
27225;SDS011;14732;51.074;3.788;2023-08-20T02:46:51;12.38;;;4.30;;
27225;SDS011;14732;51.074;3.788;2023-08-20T02:49:17;11.05;;;5.07;;
27225;SDS011;14732;51.074;3.788;2023-08-20T02:51:43;14.43;;;4.65;;
27225;SDS011;14732;51.074;3.788;2023-08-20T02:54:09;11.60;;;4.30;;
27225;SDS011;14732;51.074;3.788;2023-08-20T02:56:34;12.32;;;5.13;;
27225;SDS011;14732;51.074;3.788;2023-08-20T02:59:00;8.88;;;4.15;;
27225;SDS011;14732;51.074;3.788;2023-08-20T03:01:26;8.75;;;4.20;;
27225;SDS011;14732;51.074;3.788;2023-08-20T03:03:51;17.70;;;4.85;;
27225;SDS011;14732;51.074;3.788;2023-08-20T03:06:17;12.82;;;4.68;;
27225;SDS011;14732;51.074;3.788;2023-08-20T03:08:43;9.57;;;4.60;;
27225;SDS011;14732;51.074;3.788;2023-08-20T03:11:09;10.13;;;4.60;;
27225;SDS011;14732;51.074;3.788;2023-08-20T03:13:34;10.25;;;4.50;;
27225;SDS011;14732;51.074;3.788;2023-08-20T03:16:00;11.85;;;4.70;;
27225;SDS011;14732;51.074;3.788;2023-08-20T03:18:26;12.95;;;4.38;;
27225;SDS011;14732;51.074;3.788;2023-08-20T03:20:53;11.65;;;4.20;;
27225;SDS011;14732;51.074;3.788;2023-08-20T03:23:20;13.25;;;3.95;;
27225;SDS011;14732;51.074;3.788;2023-08-20T03:25:46;9.38;;;4.20;;
27225;SDS011;14732;51.074;3.788;2023-08-20T03:28:12;14.23;;;4.30;;
27225;SDS011;14732;51.074;3.788;2023-08-20T03:30:37;8.68;;;3.92;;
27225;SDS011;14732;51.074;3.788;2023-08-20T03:33:03;9.82;;;4.03;;
27225;SDS011;14732;51.074;3.788;2023-08-20T03:35:29;10.18;;;3.90;;
27225;SDS011;14732;51.074;3.788;2023-08-20T03:37:55;10.00;;;4.20;;
27225;SDS011;14732;51.074;3.788;2023-08-20T03:40:20;10.90;;;4.25;;
27225;SDS011;14732;51.074;3.788;2023-08-20T03:42:46;9.65;;;4.30;;
27225;SDS011;14732;51.074;3.788;2023-08-20T03:45:11;13.50;;;4.18;;
27225;SDS011;14732;51.074;3.788;2023-08-20T03:47:37;14.98;;;4.30;;
27225;SDS011;14732;51.074;3.788;2023-08-20T03:50:03;10.55;;;4.10;;
27225;SDS011;14732;51.074;3.788;2023-08-20T03:52:29;11.07;;;4.25;;
27225;SDS011;14732;51.074;3.788;2023-08-20T03:54:54;9.93;;;4.00;;
27225;SDS011;14732;51.074;3.788;2023-08-20T03:57:20;11.77;;;4.15;;
27225;SDS011;14732;51.074;3.788;2023-08-20T03:59:46;10.45;;;4.10;;
27225;SDS011;14732;51.074;3.788;2023-08-20T04:02:12;10.00;;;4.10;;
27225;SDS011;14732;51.074;3.788;2023-08-20T04:04:38;7.00;;;3.40;;
27225;SDS011;14732;51.074;3.788;2023-08-20T04:07:04;7.88;;;3.35;;
27225;SDS011;14732;51.074;3.788;2023-08-20T04:09:29;9.77;;;4.05;;
27225;SDS011;14732;51.074;3.788;2023-08-20T04:11:57;8.32;;;3.45;;
27225;SDS011;14732;51.074;3.788;2023-08-20T04:14:22;12.70;;;3.85;;
27225;SDS011;14732;51.074;3.788;2023-08-20T04:16:48;12.68;;;4.13;;
27225;SDS011;14732;51.074;3.788;2023-08-20T04:19:13;13.07;;;4.25;;
27225;SDS011;14732;51.074;3.788;2023-08-20T04:21:39;15.20;;;4.53;;
27225;SDS011;14732;51.074;3.788;2023-08-20T04:24:05;14.82;;;4.18;;
27225;SDS011;14732;51.074;3.788;2023-08-20T04:26:31;13.68;;;4.15;;
27225;SDS011;14732;51.074;3.788;2023-08-20T04:28:56;12.57;;;4.15;;
27225;SDS011;14732;51.074;3.788;2023-08-20T04:31:22;9.90;;;4.05;;
27225;SDS011;14732;51.074;3.788;2023-08-20T04:33:48;9.55;;;4.00;;
27225;SDS011;14732;51.074;3.788;2023-08-20T04:36:13;11.57;;;3.53;;
27225;SDS011;14732;51.074;3.788;2023-08-20T04:38:39;6.35;;;3.78;;
27225;SDS011;14732;51.074;3.788;2023-08-20T04:41:04;8.50;;;3.72;;
27225;SDS011;14732;51.074;3.788;2023-08-20T04:43:30;9.57;;;3.92;;
27225;SDS011;14732;51.074;3.788;2023-08-20T04:45:56;10.45;;;4.05;;
27225;SDS011;14732;51.074;3.788;2023-08-20T04:48:21;9.52;;;3.92;;
27225;SDS011;14732;51.074;3.788;2023-08-20T04:50:47;9.57;;;4.15;;
27225;SDS011;14732;51.074;3.788;2023-08-20T04:53:12;8.43;;;3.58;;
27225;SDS011;14732;51.074;3.788;2023-08-20T04:55:38;9.27;;;3.53;;
27225;SDS011;14732;51.074;3.788;2023-08-20T04:58:04;15.80;;;5.10;;
27225;SDS011;14732;51.074;3.788;2023-08-20T05:00:29;7.60;;;3.83;;
27225;SDS011;14732;51.074;3.788;2023-08-20T05:02:55;6.75;;;3.60;;
27225;SDS011;14732;51.074;3.788;2023-08-20T05:05:21;10.02;;;4.13;;
27225;SDS011;14732;51.074;3.788;2023-08-20T05:07:47;11.55;;;4.07;;
27225;SDS011;14732;51.074;3.788;2023-08-20T05:10:12;10.13;;;4.10;;
27225;SDS011;14732;51.074;3.788;2023-08-20T05:12:38;13.55;;;4.28;;
27225;SDS011;14732;51.074;3.788;2023-08-20T05:15:04;9.27;;;3.67;;
27225;SDS011;14732;51.074;3.788;2023-08-20T05:17:30;7.82;;;4.03;;
27225;SDS011;14732;51.074;3.788;2023-08-20T05:19:55;12.52;;;4.15;;
27225;SDS011;14732;51.074;3.788;2023-08-20T05:22:21;7.75;;;3.80;;
27225;SDS011;14732;51.074;3.788;2023-08-20T05:24:46;10.75;;;4.13;;
27225;SDS011;14732;51.074;3.788;2023-08-20T05:27:13;9.23;;;3.75;;
27225;SDS011;14732;51.074;3.788;2023-08-20T05:29:41;8.38;;;3.80;;
27225;SDS011;14732;51.074;3.788;2023-08-20T05:32:07;10.10;;;3.53;;
27225;SDS011;14732;51.074;3.788;2023-08-20T05:34:33;8.85;;;3.80;;
27225;SDS011;14732;51.074;3.788;2023-08-20T05:36:58;8.98;;;3.60;;
27225;SDS011;14732;51.074;3.788;2023-08-20T05:39:24;10.02;;;3.88;;
27225;SDS011;14732;51.074;3.788;2023-08-20T05:41:56;7.40;;;3.70;;
27225;SDS011;14732;51.074;3.788;2023-08-20T05:44:22;8.75;;;4.18;;
27225;SDS011;14732;51.074;3.788;2023-08-20T05:46:47;8.35;;;3.63;;
27225;SDS011;14732;51.074;3.788;2023-08-20T05:49:14;10.10;;;4.35;;
27225;SDS011;14732;51.074;3.788;2023-08-20T05:51:43;13.70;;;4.90;;
27225;SDS011;14732;51.074;3.788;2023-08-20T05:54:09;10.23;;;3.40;;
27225;SDS011;14732;51.074;3.788;2023-08-20T05:56:35;9.35;;;3.10;;
27225;SDS011;14732;51.074;3.788;2023-08-20T05:59:01;9.93;;;2.70;;
27225;SDS011;14732;51.074;3.788;2023-08-20T06:01:27;9.25;;;3.00;;
27225;SDS011;14732;51.074;3.788;2023-08-20T06:03:52;8.02;;;3.10;;
27225;SDS011;14732;51.074;3.788;2023-08-20T06:06:18;7.38;;;2.88;;
27225;SDS011;14732;51.074;3.788;2023-08-20T06:08:44;6.65;;;2.70;;
27225;SDS011;14732;51.074;3.788;2023-08-20T06:11:09;6.90;;;2.55;;
27225;SDS011;14732;51.074;3.788;2023-08-20T06:13:35;5.47;;;2.60;;
27225;SDS011;14732;51.074;3.788;2023-08-20T06:16:01;7.47;;;2.67;;
27225;SDS011;14732;51.074;3.788;2023-08-20T06:18:26;6.35;;;2.78;;
27225;SDS011;14732;51.074;3.788;2023-08-20T06:20:52;4.50;;;2.70;;
27225;SDS011;14732;51.074;3.788;2023-08-20T06:23:18;7.53;;;2.95;;
27225;SDS011;14732;51.074;3.788;2023-08-20T06:25:43;9.38;;;2.90;;
27225;SDS011;14732;51.074;3.788;2023-08-20T06:28:09;8.77;;;3.22;;
27225;SDS011;14732;51.074;3.788;2023-08-20T06:30:35;8.57;;;3.00;;
27225;SDS011;14732;51.074;3.788;2023-08-20T06:33:01;8.15;;;3.13;;
27225;SDS011;14732;51.074;3.788;2023-08-20T06:35:26;9.75;;;2.88;;
27225;SDS011;14732;51.074;3.788;2023-08-20T06:37:52;6.65;;;2.70;;
27225;SDS011;14732;51.074;3.788;2023-08-20T06:40:18;8.18;;;3.00;;
27225;SDS011;14732;51.074;3.788;2023-08-20T06:42:43;7.25;;;3.00;;
27225;SDS011;14732;51.074;3.788;2023-08-20T06:45:09;7.13;;;2.90;;
27225;SDS011;14732;51.074;3.788;2023-08-20T06:47:35;4.47;;;2.25;;
27225;SDS011;14732;51.074;3.788;2023-08-20T06:50:01;13.00;;;3.05;;
27225;SDS011;14732;51.074;3.788;2023-08-20T06:52:27;7.93;;;2.03;;
27225;SDS011;14732;51.074;3.788;2023-08-20T06:54:52;4.80;;;1.80;;
27225;SDS011;14732;51.074;3.788;2023-08-20T06:57:18;7.22;;;1.52;;
27225;SDS011;14732;51.074;3.788;2023-08-20T06:59:44;8.73;;;1.50;;
27225;SDS011;14732;51.074;3.788;2023-08-20T07:02:10;6.82;;;1.30;;
27225;SDS011;14732;51.074;3.788;2023-08-20T07:04:36;7.20;;;1.58;;
27225;SDS011;14732;51.074;3.788;2023-08-20T07:07:01;7.00;;;1.45;;
27225;SDS011;14732;51.074;3.788;2023-08-20T07:09:29;9.75;;;1.55;;
27225;SDS011;14732;51.074;3.788;2023-08-20T07:11:55;6.60;;;1.60;;
27225;SDS011;14732;51.074;3.788;2023-08-20T07:14:21;6.85;;;1.60;;
27225;SDS011;14732;51.074;3.788;2023-08-20T07:16:46;6.40;;;1.30;;
27225;SDS011;14732;51.074;3.788;2023-08-20T07:19:12;8.25;;;1.70;;
27225;SDS011;14732;51.074;3.788;2023-08-20T07:21:38;10.55;;;1.45;;
27225;SDS011;14732;51.074;3.788;2023-08-20T07:24:03;8.45;;;1.58;;
27225;SDS011;14732;51.074;3.788;2023-08-20T07:26:29;6.13;;;1.20;;
27225;SDS011;14732;51.074;3.788;2023-08-20T07:28:55;6.25;;;1.60;;
27225;SDS011;14732;51.074;3.788;2023-08-20T07:31:21;3.63;;;1.20;;
27225;SDS011;14732;51.074;3.788;2023-08-20T07:33:47;6.90;;;1.65;;
27225;SDS011;14732;51.074;3.788;2023-08-20T07:36:14;7.60;;;1.25;;
27225;SDS011;14732;51.074;3.788;2023-08-20T07:38:40;4.85;;;1.42;;
27225;SDS011;14732;51.074;3.788;2023-08-20T07:41:08;8.80;;;1.45;;
27225;SDS011;14732;51.074;3.788;2023-08-20T07:43:34;3.30;;;0.95;;
27225;SDS011;14732;51.074;3.788;2023-08-20T07:45:59;5.75;;;1.30;;
27225;SDS011;14732;51.074;3.788;2023-08-20T07:48:25;7.32;;;1.30;;
27225;SDS011;14732;51.074;3.788;2023-08-20T07:50:51;4.07;;;1.00;;
27225;SDS011;14732;51.074;3.788;2023-08-20T07:53:16;5.63;;;1.17;;
27225;SDS011;14732;51.074;3.788;2023-08-20T07:55:42;5.68;;;1.17;;
27225;SDS011;14732;51.074;3.788;2023-08-20T07:58:08;7.13;;;1.30;;
27225;SDS011;14732;51.074;3.788;2023-08-20T08:00:33;5.82;;;1.00;;
27225;SDS011;14732;51.074;3.788;2023-08-20T08:03:00;7.00;;;1.10;;
27225;SDS011;14732;51.074;3.788;2023-08-20T08:05:25;4.93;;;1.17;;
27225;SDS011;14732;51.074;3.788;2023-08-20T08:07:51;5.35;;;1.30;;
27225;SDS011;14732;51.074;3.788;2023-08-20T08:10:17;7.43;;;1.10;;
27225;SDS011;14732;51.074;3.788;2023-08-20T08:12:42;6.13;;;1.23;;
27225;SDS011;14732;51.074;3.788;2023-08-20T08:15:08;5.88;;;1.20;;
27225;SDS011;14732;51.074;3.788;2023-08-20T08:17:34;5.63;;;1.10;;
27225;SDS011;14732;51.074;3.788;2023-08-20T08:19:59;4.15;;;1.20;;
27225;SDS011;14732;51.074;3.788;2023-08-20T08:22:25;5.03;;;1.30;;
27225;SDS011;14732;51.074;3.788;2023-08-20T08:24:50;5.40;;;1.10;;
27225;SDS011;14732;51.074;3.788;2023-08-20T08:27:16;6.70;;;1.35;;
27225;SDS011;14732;51.074;3.788;2023-08-20T08:29:42;4.07;;;1.20;;
27225;SDS011;14732;51.074;3.788;2023-08-20T08:32:09;6.95;;;1.58;;
27225;SDS011;14732;51.074;3.788;2023-08-20T08:34:35;6.13;;;1.35;;
27225;SDS011;14732;51.074;3.788;2023-08-20T08:37:00;5.88;;;1.35;;
27225;SDS011;14732;51.074;3.788;2023-08-20T08:39:26;4.40;;;1.38;;
27225;SDS011;14732;51.074;3.788;2023-08-20T08:41:52;7.10;;;1.42;;
27225;SDS011;14732;51.074;3.788;2023-08-20T08:44:26;6.97;;;1.30;;
27225;SDS011;14732;51.074;3.788;2023-08-20T08:46:53;5.32;;;1.13;;
27225;SDS011;14732;51.074;3.788;2023-08-20T08:49:18;4.35;;;1.10;;
27225;SDS011;14732;51.074;3.788;2023-08-20T08:51:44;5.95;;;1.00;;
27225;SDS011;14732;51.074;3.788;2023-08-20T08:54:11;3.35;;;1.10;;
27225;SDS011;14732;51.074;3.788;2023-08-20T08:56:38;3.28;;;1.20;;
27225;SDS011;14732;51.074;3.788;2023-08-20T08:59:04;3.20;;;0.93;;
27225;SDS011;14732;51.074;3.788;2023-08-20T09:01:30;1.92;;;0.90;;
27225;SDS011;14732;51.074;3.788;2023-08-20T09:03:56;3.55;;;0.90;;
27225;SDS011;14732;51.074;3.788;2023-08-20T09:06:22;3.35;;;0.82;;
27225;SDS011;14732;51.074;3.788;2023-08-20T09:08:47;4.00;;;0.82;;
27225;SDS011;14732;51.074;3.788;2023-08-20T09:11:13;5.22;;;1.02;;
27225;SDS011;14732;51.074;3.788;2023-08-20T09:13:39;3.47;;;0.80;;
27225;SDS011;14732;51.074;3.788;2023-08-20T09:16:07;4.13;;;1.00;;
27225;SDS011;14732;51.074;3.788;2023-08-20T09:18:40;3.60;;;0.90;;
27225;SDS011;14732;51.074;3.788;2023-08-20T09:21:09;3.42;;;0.93;;
27225;SDS011;14732;51.074;3.788;2023-08-20T09:23:35;3.85;;;0.85;;
27225;SDS011;14732;51.074;3.788;2023-08-20T09:26:02;2.42;;;0.60;;
27225;SDS011;14732;51.074;3.788;2023-08-20T09:28:29;2.97;;;0.70;;
27225;SDS011;14732;51.074;3.788;2023-08-20T09:31:08;4.82;;;0.98;;
27225;SDS011;14732;51.074;3.788;2023-08-20T09:33:33;5.72;;;1.20;;
27225;SDS011;14732;51.074;3.788;2023-08-20T09:35:59;3.55;;;1.00;;
27225;SDS011;14732;51.074;3.788;2023-08-20T09:38:25;5.30;;;1.33;;
27225;SDS011;14732;51.074;3.788;2023-08-20T09:40:51;2.90;;;0.88;;
27225;SDS011;14732;51.074;3.788;2023-08-20T09:43:18;3.47;;;1.00;;
27225;SDS011;14732;51.074;3.788;2023-08-20T09:45:45;4.18;;;1.40;;
27225;SDS011;14732;51.074;3.788;2023-08-20T09:48:12;4.13;;;1.40;;
27225;SDS011;14732;51.074;3.788;2023-08-20T09:50:44;3.75;;;1.20;;
27225;SDS011;14732;51.074;3.788;2023-08-20T09:53:12;2.30;;;1.10;;
27225;SDS011;14732;51.074;3.788;2023-08-20T09:55:55;3.17;;;1.00;;
27225;SDS011;14732;51.074;3.788;2023-08-20T09:58:26;3.58;;;1.08;;
27225;SDS011;14732;51.074;3.788;2023-08-20T10:00:52;4.13;;;1.17;;
27225;SDS011;14732;51.074;3.788;2023-08-20T10:03:19;3.30;;;1.15;;
27225;SDS011;14732;51.074;3.788;2023-08-20T10:05:46;3.17;;;0.90;;
27225;SDS011;14732;51.074;3.788;2023-08-20T10:08:15;3.97;;;0.90;;
27225;SDS011;14732;51.074;3.788;2023-08-20T10:10:40;2.53;;;0.93;;
27225;SDS011;14732;51.074;3.788;2023-08-20T10:13:06;3.67;;;1.17;;
27225;SDS011;14732;51.074;3.788;2023-08-20T10:15:32;4.00;;;1.20;;
27225;SDS011;14732;51.074;3.788;2023-08-20T10:18:01;3.13;;;1.00;;
27225;SDS011;14732;51.074;3.788;2023-08-20T10:20:28;2.35;;;1.00;;
27225;SDS011;14732;51.074;3.788;2023-08-20T10:22:57;4.28;;;1.13;;
27225;SDS011;14732;51.074;3.788;2023-08-20T10:25:27;4.65;;;1.35;;
27225;SDS011;14732;51.074;3.788;2023-08-20T10:27:54;6.57;;;1.23;;
27225;SDS011;14732;51.074;3.788;2023-08-20T10:30:35;4.13;;;1.17;;
27225;SDS011;14732;51.074;3.788;2023-08-20T10:33:01;3.92;;;0.95;;
27225;SDS011;14732;51.074;3.788;2023-08-20T10:35:49;7.65;;;2.15;;
27225;SDS011;14732;51.074;3.788;2023-08-20T10:38:15;4.28;;;1.30;;
27225;SDS011;14732;51.074;3.788;2023-08-20T10:44:14;2.78;;;0.88;;
27225;SDS011;14732;51.074;3.788;2023-08-20T10:46:13;2.43;;;1.00;;
27225;SDS011;14732;51.074;3.788;2023-08-20T10:48:53;3.00;;;0.88;;
27225;SDS011;14732;51.074;3.788;2023-08-20T10:56:48;5.18;;;1.08;;
27225;SDS011;14732;51.074;3.788;2023-08-20T10:59:23;3.97;;;1.33;;
27225;SDS011;14732;51.074;3.788;2023-08-20T11:01:58;6.43;;;1.30;;
27225;SDS011;14732;51.074;3.788;2023-08-20T11:04:28;3.08;;;1.00;;
27225;SDS011;14732;51.074;3.788;2023-08-20T11:06:57;5.82;;;1.08;;
27225;SDS011;14732;51.074;3.788;2023-08-20T11:09:25;6.43;;;1.05;;
27225;SDS011;14732;51.074;3.788;2023-08-20T11:11:52;2.58;;;0.88;;
27225;SDS011;14732;51.074;3.788;2023-08-20T11:14:18;3.70;;;0.75;;
27225;SDS011;14732;51.074;3.788;2023-08-20T11:16:44;2.55;;;0.90;;
27225;SDS011;14732;51.074;3.788;2023-08-20T11:19:11;3.35;;;0.95;;
27225;SDS011;14732;51.074;3.788;2023-08-20T11:21:38;3.15;;;1.00;;
27225;SDS011;14732;51.074;3.788;2023-08-20T11:24:09;3.95;;;1.00;;
27225;SDS011;14732;51.074;3.788;2023-08-20T11:26:35;7.28;;;1.20;;
27225;SDS011;14732;51.074;3.788;2023-08-20T11:29:07;2.40;;;0.82;;
27225;SDS011;14732;51.074;3.788;2023-08-20T11:31:33;3.45;;;1.02;;
27225;SDS011;14732;51.074;3.788;2023-08-20T11:34:01;3.90;;;1.13;;
27225;SDS011;14732;51.074;3.788;2023-08-20T11:36:28;4.38;;;1.17;;
27225;SDS011;14732;51.074;3.788;2023-08-20T11:38:54;3.75;;;1.20;;
27225;SDS011;14732;51.074;3.788;2023-08-20T11:41:20;3.33;;;0.80;;
27225;SDS011;14732;51.074;3.788;2023-08-20T11:43:50;5.00;;;1.00;;
27225;SDS011;14732;51.074;3.788;2023-08-20T11:46:21;4.55;;;0.90;;
27225;SDS011;14732;51.074;3.788;2023-08-20T11:49:01;6.68;;;1.00;;
27225;SDS011;14732;51.074;3.788;2023-08-20T11:52:04;3.28;;;0.68;;
27225;SDS011;14732;51.074;3.788;2023-08-20T11:54:22;3.78;;;0.90;;
27225;SDS011;14732;51.074;3.788;2023-08-20T11:56:51;3.88;;;0.80;;
27225;SDS011;14732;51.074;3.788;2023-08-20T11:59:18;3.97;;;0.85;;
27225;SDS011;14732;51.074;3.788;2023-08-20T12:01:51;2.70;;;0.85;;
27225;SDS011;14732;51.074;3.788;2023-08-20T12:04:23;2.92;;;1.05;;
27225;SDS011;14732;51.074;3.788;2023-08-20T12:07:01;4.95;;;1.00;;
27225;SDS011;14732;51.074;3.788;2023-08-20T12:09:33;3.17;;;1.10;;
27225;SDS011;14732;51.074;3.788;2023-08-20T12:11:59;3.33;;;0.70;;
27225;SDS011;14732;51.074;3.788;2023-08-20T12:14:26;2.22;;;0.80;;
27225;SDS011;14732;51.074;3.788;2023-08-20T12:16:53;4.40;;;1.02;;
27225;SDS011;14732;51.074;3.788;2023-08-20T12:19:19;4.32;;;0.90;;
27225;SDS011;14732;51.074;3.788;2023-08-20T12:21:45;2.00;;;0.73;;
27225;SDS011;14732;51.074;3.788;2023-08-20T12:24:11;2.38;;;0.80;;
27225;SDS011;14732;51.074;3.788;2023-08-20T12:26:37;2.78;;;0.90;;
27225;SDS011;14732;51.074;3.788;2023-08-20T12:29:03;3.45;;;0.80;;
27225;SDS011;14732;51.074;3.788;2023-08-20T12:31:29;4.35;;;1.08;;
27225;SDS011;14732;51.074;3.788;2023-08-20T12:33:54;2.45;;;0.85;;
27225;SDS011;14732;51.074;3.788;2023-08-20T12:36:20;4.43;;;0.80;;
27225;SDS011;14732;51.074;3.788;2023-08-20T12:38:46;3.15;;;0.90;;
27225;SDS011;14732;51.074;3.788;2023-08-20T12:41:11;5.13;;;0.90;;
27225;SDS011;14732;51.074;3.788;2023-08-20T12:43:37;3.63;;;0.88;;
27225;SDS011;14732;51.074;3.788;2023-08-20T12:46:03;3.00;;;0.75;;
27225;SDS011;14732;51.074;3.788;2023-08-20T12:48:28;4.35;;;0.80;;
27225;SDS011;14732;51.074;3.788;2023-08-20T12:50:55;4.70;;;0.75;;
27225;SDS011;14732;51.074;3.788;2023-08-20T12:53:20;4.35;;;0.90;;
27225;SDS011;14732;51.074;3.788;2023-08-20T12:55:46;3.75;;;0.73;;
27225;SDS011;14732;51.074;3.788;2023-08-20T12:58:12;1.77;;;0.70;;
27225;SDS011;14732;51.074;3.788;2023-08-20T13:00:38;4.43;;;1.05;;
27225;SDS011;14732;51.074;3.788;2023-08-20T13:03:04;6.43;;;0.90;;
27225;SDS011;14732;51.074;3.788;2023-08-20T13:05:30;3.92;;;1.00;;
27225;SDS011;14732;51.074;3.788;2023-08-20T13:07:56;2.97;;;1.25;;
27225;SDS011;14732;51.074;3.788;2023-08-20T13:10:22;4.93;;;1.13;;
27225;SDS011;14732;51.074;3.788;2023-08-20T13:12:49;4.47;;;1.05;;
27225;SDS011;14732;51.074;3.788;2023-08-20T13:15:20;5.25;;;1.02;;
27225;SDS011;14732;51.074;3.788;2023-08-20T13:17:47;3.80;;;1.10;;
27225;SDS011;14732;51.074;3.788;2023-08-20T13:20:15;4.22;;;0.98;;
27225;SDS011;14732;51.074;3.788;2023-08-20T13:22:46;5.85;;;0.95;;
27225;SDS011;14732;51.074;3.788;2023-08-20T13:25:15;2.67;;;0.83;;
27225;SDS011;14732;51.074;3.788;2023-08-20T13:27:41;5.57;;;1.00;;
27225;SDS011;14732;51.074;3.788;2023-08-20T13:30:07;4.57;;;0.93;;
27225;SDS011;14732;51.074;3.788;2023-08-20T13:32:34;3.60;;;0.98;;
27225;SDS011;14732;51.074;3.788;2023-08-20T13:35:00;3.40;;;1.00;;
27225;SDS011;14732;51.074;3.788;2023-08-20T13:37:27;3.88;;;0.85;;
27225;SDS011;14732;51.074;3.788;2023-08-20T13:39:54;4.28;;;1.05;;
27225;SDS011;14732;51.074;3.788;2023-08-20T13:42:19;2.72;;;1.00;;
27225;SDS011;14732;51.074;3.788;2023-08-20T13:44:45;2.97;;;1.00;;
27225;SDS011;14732;51.074;3.788;2023-08-20T13:47:10;4.40;;;1.27;;
27225;SDS011;14732;51.074;3.788;2023-08-20T13:49:36;4.32;;;1.30;;
27225;SDS011;14732;51.074;3.788;2023-08-20T13:52:02;5.13;;;1.50;;
27225;SDS011;14732;51.074;3.788;2023-08-20T13:54:27;8.25;;;1.60;;
27225;SDS011;14732;51.074;3.788;2023-08-20T13:56:53;6.50;;;1.60;;
27225;SDS011;14732;51.074;3.788;2023-08-20T13:59:19;7.13;;;1.77;;
27225;SDS011;14732;51.074;3.788;2023-08-20T14:01:44;7.85;;;1.48;;
27225;SDS011;14732;51.074;3.788;2023-08-20T14:04:10;9.27;;;1.70;;
27225;SDS011;14732;51.074;3.788;2023-08-20T14:06:35;10.13;;;1.63;;
27225;SDS011;14732;51.074;3.788;2023-08-20T14:09:01;9.55;;;1.60;;
27225;SDS011;14732;51.074;3.788;2023-08-20T14:11:29;4.85;;;1.38;;
27225;SDS011;14732;51.074;3.788;2023-08-20T14:13:55;6.63;;;1.48;;
27225;SDS011;14732;51.074;3.788;2023-08-20T14:16:21;6.53;;;1.15;;
27225;SDS011;14732;51.074;3.788;2023-08-20T14:18:46;7.80;;;1.55;;
27225;SDS011;14732;51.074;3.788;2023-08-20T14:21:12;8.45;;;1.70;;
27225;SDS011;14732;51.074;3.788;2023-08-20T14:23:38;8.38;;;1.52;;
27225;SDS011;14732;51.074;3.788;2023-08-20T14:26:05;9.00;;;1.65;;
27225;SDS011;14732;51.074;3.788;2023-08-20T14:28:31;9.27;;;1.52;;
27225;SDS011;14732;51.074;3.788;2023-08-20T14:30:58;8.27;;;2.20;;
27225;SDS011;14732;51.074;3.788;2023-08-20T14:33:28;8.73;;;1.75;;
27225;SDS011;14732;51.074;3.788;2023-08-20T14:35:54;8.00;;;1.70;;
27225;SDS011;14732;51.074;3.788;2023-08-20T14:38:20;6.80;;;1.70;;
27225;SDS011;14732;51.074;3.788;2023-08-20T14:40:46;11.02;;;1.77;;
27225;SDS011;14732;51.074;3.788;2023-08-20T14:43:12;8.68;;;1.95;;
27225;SDS011;14732;51.074;3.788;2023-08-20T14:45:37;6.82;;;1.67;;
27225;SDS011;14732;51.074;3.788;2023-08-20T14:48:03;8.73;;;1.65;;
27225;SDS011;14732;51.074;3.788;2023-08-20T14:50:29;5.60;;;1.40;;
27225;SDS011;14732;51.074;3.788;2023-08-20T14:52:55;10.90;;;2.33;;
27225;SDS011;14732;51.074;3.788;2023-08-20T14:55:20;8.98;;;1.98;;